Aeroporto :
LOGIN :

Iscrizione | Disclaimer

   EN    FR    IT 

 










Sommario :    VFR   VFR Marginale   IFR   IFR Intensivo   IFR Molto Intensivo
Visibilità : 
Base nubi : 
>= 8 km
>= 3000ft
5 / 8 km
1000 / 3000 ft
1500m / 5 km
500 / 1000 ft
800 / 1500m
200 / 500 ft
< 800m
< 200 ft
Simboli :   Temporali  Nebbia  Neve Forte  Precipitazioni Forti  Vento > 20 kt
SIGMETs :   Varie  Temporali  Ghiacco  Turbolenza  Onda orograficha  Ceneri Vulcaniche







- Altitudine del aeroporto : 600 ft
- Codice IATA : VIE


LOWW - Vienna Schwechat

ULTIMO METAR :
  • 231220Z 31020G30KT 9999 FEW036 BKN050 15/06 Q1017 NOSIG

METARs OBSOLETI :
  • 231150Z 31020KT 9999 FEW035 BKN050 14/06 Q1017 NOSIG
  • 231120Z 31015KT 9999 FEW035 BKN050 14/06 Q1017 NOSIG
  • 231050Z 31013KT 9999 FEW035 BKN050 13/06 Q1018 NOSIG
  • 231020Z 30016KT 9999 FEW035 BKN049 13/06 Q1017 NOSIG
  • 230950Z 31018KT 9999 FEW035 BKN045 13/06 Q1017 NOSIG

TAF AMD TAF LOWW
Valido dal 23 a 12 ore il 24 a 18 ore UTC


231153Z 2312/2418 31014KT 9999 FEW040 BKN060 TX21/2415Z TN10/2403Z
TEMPO 2312/2315 32022G32KT
BECMG 2315/2318 32007KT CAVOK
Nessun NOTAM noto per questo aeroporto.



MetMap, La meteo Aeronautica in un colpo d'occhio ! - Copyright ORBIFLY Dicembre 2007 - Disclaimer

ORBIFLY MET'MAP TEAM :

Programmazione e sviluppo : Alexandra Zaïnal
Concezione e sviluppo : Baudouin d'Aumeries
Co-Programmazione e sviluppo : Marc-Olivier Méhu
Supporto tecnico e logistico : Manuel Goepfert
Aiuto per la traduzione : Arnaldo La Scala

Contatto : metmap@orbifly.com




FONTI E CREDITI :

   NOAA